createdAt,value
2022-12-03T00:04:30.304Z,96700.09
2022-12-03T00:09:21.986Z,96696.03
2022-12-03T00:19:20.592Z,96693.56
2022-12-03T00:24:12.272Z,96694.34
2022-12-03T01:00:13.276Z,96702.19
2022-12-03T01:05:06.434Z,96703.72
2022-12-03T01:09:58.191Z,96711.00
2022-12-03T01:14:49.869Z,96705.38
2022-12-03T01:19:47.842Z,96708.97
2022-12-03T01:40:01.635Z,96706.00
2022-12-03T01:44:57.903Z,96696.66
2022-12-03T01:50:19.300Z,96695.72
2022-12-03T01:55:20.976Z,96698.94
2022-12-03T02:00:23.677Z,96713.66
2022-12-03T02:05:24.329Z,96705.56
2022-12-03T02:10:22.012Z,96712.91
2022-12-03T02:15:14.189Z,96715.34
2022-12-03T02:20:10.221Z,96706.00
2022-12-03T02:25:27.691Z,96711.34
2022-12-03T02:30:22.942Z,96726.03
2022-12-03T02:35:44.754Z,96731.00
2022-12-03T02:40:37.101Z,96721.50
2022-12-03T02:45:34.235Z,96720.88
2022-12-03T02:50:33.599Z,96729.25
2022-12-03T02:55:29.660Z,96719.09
2022-12-03T03:00:24.251Z,96730.06
2022-12-03T03:05:20.301Z,96734.22
2022-12-03T03:10:16.666Z,96733.28
2022-12-03T03:15:11.375Z,96724.41
2022-12-03T03:20:06.653Z,96708.75
2022-12-03T03:24:58.463Z,96704.91
2022-12-03T03:29:50.775Z,96717.47
2022-12-03T03:34:42.602Z,96717.44
2022-12-03T03:39:35.213Z,96724.84
2022-12-03T03:44:28.148Z,96720.63
2022-12-03T03:49:20.252Z,96721.91
2022-12-03T03:54:12.598Z,96712.69
2022-12-03T03:59:04.857Z,96698.63
2022-12-03T04:03:58.572Z,96703.13
2022-12-03T04:08:50.271Z,96703.38
2022-12-03T04:13:41.944Z,96704.47
2022-12-03T04:18:42.698Z,96706.53
2022-12-03T04:23:34.372Z,96715.88
2022-12-03T04:28:44.723Z,96713.63
2022-12-03T04:34:14.817Z,96717.97
2022-12-03T04:39:06.486Z,96712.88
2022-12-03T04:44:16.805Z,96704.19
2022-12-03T04:49:08.479Z,96708.22
2022-12-03T04:54:00.150Z,96707.22
2022-12-03T04:58:51.853Z,96713.16
2022-12-03T05:08:49.923Z,96722.44
2022-12-03T05:13:43.621Z,96725.56
2022-12-03T05:24:11.569Z,96723.13
2022-12-03T05:29:04.775Z,96725.19
2022-12-03T05:33:56.906Z,96713.50
2022-12-03T05:38:56.085Z,96710.91
2022-12-03T05:43:48.211Z,96719.59
2022-12-03T05:48:40.643Z,96715.00
2022-12-03T05:53:36.462Z,96716.41
2022-12-03T05:58:30.192Z,96719.44
2022-12-03T06:03:23.437Z,96720.00
2022-12-03T06:08:19.307Z,96715.44
2022-12-03T06:13:11.180Z,96705.59
2022-12-03T06:18:03.065Z,96711.03
2022-12-03T06:22:56.478Z,96700.03
2022-12-03T06:27:48.595Z,96699.16
2022-12-03T06:37:48.076Z,96704.06
2022-12-03T06:42:39.837Z,96695.66
2022-12-03T06:47:32.388Z,96689.91
2022-12-03T06:57:30.429Z,96695.31
2022-12-03T07:02:24.300Z,96689.75
2022-12-03T07:07:24.412Z,96695.91
2022-12-03T07:12:24.157Z,96702.97
2022-12-03T07:17:17.007Z,96713.25
2022-12-03T07:22:12.367Z,96708.41
2022-12-03T07:37:21.473Z,96695.63
2022-12-03T07:57:33.882Z,96689.63
2022-12-03T08:02:33.780Z,96690.81
2022-12-03T08:23:13.320Z,96707.09
2022-12-03T09:00:26.953Z,96694.13
2022-12-03T09:05:34.220Z,96693.75
2022-12-03T09:15:32.973Z,96689.81
2022-12-03T09:20:25.759Z,96697.66
2022-12-03T09:25:19.395Z,96693.31
2022-12-03T10:00:58.387Z,96657.47
2022-12-03T10:10:59.138Z,96652.16
2022-12-03T10:21:09.273Z,96643.69
2022-12-03T10:26:11.558Z,96633.59
2022-12-03T11:07:21.137Z,96582.63
2022-12-03T11:23:00.397Z,96566.16
2022-12-03T11:44:25.759Z,96553.00
2022-12-03T11:54:36.888Z,96554.31
2022-12-03T11:59:34.298Z,96542.88
2022-12-03T13:53:56.285Z,96472.03
2022-12-03T14:29:33.908Z,96467.66
2022-12-03T14:39:37.464Z,96466.66
2022-12-03T16:26:56.368Z,96470.44
2022-12-03T17:38:10.241Z,96430.53
2022-12-03T17:48:12.034Z,96433.44
2022-12-03T17:58:11.632Z,96415.19
2022-12-03T18:03:03.960Z,96416.66
2022-12-03T18:59:05.392Z,96395.91
2022-12-03T20:21:11.966Z,96381.41
2022-12-03T20:57:05.747Z,96372.53
2022-12-03T21:37:52.672Z,96355.84
2022-12-03T21:53:00.238Z,96374.25
